Woodbine, Iowa
Current Conditions -  °F | °C
As of 7:35 AM on Friday 19 Dec 2014 (Local Time) from KHNR Reporting Station
Haze Haze  
Wind Chill: 24°   Ceiling: 600
Heat Index: 30°   Visibility: 4mi
Dew Point: 30°   Wind: 6mph
Humidity: 100%   Direction: 180°S
Pressure: 30.26"   Gusts: NA
Location:  41.74°N, 95.7°W
Report Text: KHNR 191335Z AUTO 18005KT 4SM BR OVC006 M01/M01 A3026 RMK AO2
Loading
Personal Weather Stations






























Interactive Weather Map New forecast layout! Learn more

10-Day Weather Forecast

Advertisements
Track Severe Weather on mobile